sensor_id;sensor_type;location;lat;lon;timestamp;pressure;altitude;pressure_sealevel;temperature;humidity
58373;BME280;44177;43.356;27.672;2023-08-12T00:00:57;98533.03;;;16.61;75.29
58373;BME280;44177;43.356;27.672;2023-08-12T00:03:23;98532.69;;;16.66;75.27
58373;BME280;44177;43.356;27.672;2023-08-12T00:05:48;98532.25;;;16.64;74.92
58373;BME280;44177;43.356;27.672;2023-08-12T00:08:14;98537.03;;;16.67;74.13
58373;BME280;44177;43.356;27.672;2023-08-12T00:10:40;98531.47;;;16.64;73.97
58373;BME280;44177;43.356;27.672;2023-08-12T00:13:05;98537.41;;;16.69;73.54
58373;BME280;44177;43.356;27.672;2023-08-12T00:15:31;98529.16;;;16.69;73.59
58373;BME280;44177;43.356;27.672;2023-08-12T00:17:56;98539.84;;;16.74;73.75
58373;BME280;44177;43.356;27.672;2023-08-12T00:20:22;98531.53;;;16.71;73.60
58373;BME280;44177;43.356;27.672;2023-08-12T00:22:47;98524.41;;;16.66;73.09
58373;BME280;44177;43.356;27.672;2023-08-12T00:25:13;98537.84;;;16.71;73.04
58373;BME280;44177;43.356;27.672;2023-08-12T00:27:38;98530.69;;;16.67;73.08
58373;BME280;44177;43.356;27.672;2023-08-12T00:30:05;98532.69;;;16.66;73.10
58373;BME280;44177;43.356;27.672;2023-08-12T00:32:31;98517.22;;;16.54;73.22
58373;BME280;44177;43.356;27.672;2023-08-12T00:34:57;98503.81;;;16.49;73.64
58373;BME280;44177;43.356;27.672;2023-08-12T00:37:22;98519.59;;;16.56;73.17
58373;BME280;44177;43.356;27.672;2023-08-12T00:39:48;98522.75;;;16.58;73.05
58373;BME280;44177;43.356;27.672;2023-08-12T00:42:14;98505.34;;;16.47;73.16
58373;BME280;44177;43.356;27.672;2023-08-12T00:44:39;98514.44;;;16.51;73.11
58373;BME280;44177;43.356;27.672;2023-08-12T00:47:05;98528.69;;;16.60;72.92
58373;BME280;44177;43.356;27.672;2023-08-12T00:49:32;98517.19;;;16.51;72.65
58373;BME280;44177;43.356;27.672;2023-08-12T00:51:58;98533.44;;;16.63;72.58
58373;BME280;44177;43.356;27.672;2023-08-12T00:54:26;98530.66;;;16.63;72.75
58373;BME280;44177;43.356;27.672;2023-08-12T00:56:53;98527.94;;;16.67;73.11
58373;BME280;44177;43.356;27.672;2023-08-12T00:59:20;98526.00;;;16.67;73.09
58373;BME280;44177;43.356;27.672;2023-08-12T01:01:46;98525.09;;;16.56;72.82
58373;BME280;44177;43.356;27.672;2023-08-12T01:04:13;98521.63;;;16.63;72.90
58373;BME280;44177;43.356;27.672;2023-08-12T01:06:38;98519.63;;;16.60;72.81
58373;BME280;44177;43.356;27.672;2023-08-12T01:09:05;98523.94;;;16.57;72.77
58373;BME280;44177;43.356;27.672;2023-08-12T01:17:05;98521.34;;;16.75;72.75
58373;BME280;44177;43.356;27.672;2023-08-12T01:19:37;98522.16;;;16.76;72.35
58373;BME280;44177;43.356;27.672;2023-08-12T01:22:10;98525.69;;;16.76;72.56
58373;BME280;44177;43.356;27.672;2023-08-12T01:24:44;98531.19;;;16.76;72.94
58373;BME280;44177;43.356;27.672;2023-08-12T01:27:12;98532.38;;;16.79;72.35
58373;BME280;44177;43.356;27.672;2023-08-12T01:29:41;98528.03;;;16.78;72.47
58373;BME280;44177;43.356;27.672;2023-08-12T01:32:40;98531.59;;;16.78;72.16
58373;BME280;44177;43.356;27.672;2023-08-12T01:35:24;98540.63;;;16.75;72.38
58373;BME280;44177;43.356;27.672;2023-08-12T01:37:52;98533.88;;;16.69;72.42
58373;BME280;44177;43.356;27.672;2023-08-12T01:40:19;98537.81;;;16.68;72.33
58373;BME280;44177;43.356;27.672;2023-08-12T01:42:45;98540.53;;;16.64;72.37
58373;BME280;44177;43.356;27.672;2023-08-12T01:45:11;98547.19;;;16.63;72.53
58373;BME280;44177;43.356;27.672;2023-08-12T01:47:37;98541.63;;;16.56;72.62
58373;BME280;44177;43.356;27.672;2023-08-12T01:50:03;98539.31;;;16.62;72.84
58373;BME280;44177;43.356;27.672;2023-08-12T01:52:29;98533.75;;;16.54;72.85
58373;BME280;44177;43.356;27.672;2023-08-12T01:54:54;98544.44;;;16.63;73.12
58373;BME280;44177;43.356;27.672;2023-08-12T01:57:20;98537.72;;;16.61;72.66
58373;BME280;44177;43.356;27.672;2023-08-12T01:59:45;98538.13;;;16.59;72.91
58373;BME280;44177;43.356;27.672;2023-08-12T02:02:11;98538.16;;;16.63;72.76
58373;BME280;44177;43.356;27.672;2023-08-12T02:04:39;98525.03;;;16.49;72.93
58373;BME280;44177;43.356;27.672;2023-08-12T02:07:04;98532.13;;;16.50;73.14
58373;BME280;44177;43.356;27.672;2023-08-12T02:09:30;98532.09;;;16.46;73.64
58373;BME280;44177;43.356;27.672;2023-08-12T02:11:56;98538.81;;;16.49;73.64
58373;BME280;44177;43.356;27.672;2023-08-12T02:14:22;98521.72;;;16.32;73.75
58373;BME280;44177;43.356;27.672;2023-08-12T02:16:47;98530.34;;;16.31;73.71
58373;BME280;44177;43.356;27.672;2023-08-12T02:19:13;98546.09;;;16.34;74.25
58373;BME280;44177;43.356;27.672;2023-08-12T02:21:39;98549.66;;;16.34;74.21
58373;BME280;44177;43.356;27.672;2023-08-12T02:24:05;98549.25;;;16.32;74.17
58373;BME280;44177;43.356;27.672;2023-08-12T02:26:30;98552.41;;;16.34;73.97
58373;BME280;44177;43.356;27.672;2023-08-12T02:28:56;98550.09;;;16.36;74.29
58373;BME280;44177;43.356;27.672;2023-08-12T02:31:21;98554.00;;;16.35;74.45
58373;BME280;44177;43.356;27.672;2023-08-12T02:33:47;98538.56;;;16.27;73.50
58373;BME280;44177;43.356;27.672;2023-08-12T02:36:14;98542.00;;;16.17;73.61
58373;BME280;44177;43.356;27.672;2023-08-12T02:38:40;98559.34;;;16.21;73.95
58373;BME280;44177;43.356;27.672;2023-08-12T02:41:06;98531.56;;;15.99;74.25
58373;BME280;44177;43.356;27.672;2023-08-12T02:43:31;98530.81;;;16.02;74.63
58373;BME280;44177;43.356;27.672;2023-08-12T02:45:57;98551.84;;;16.18;74.71
58373;BME280;44177;43.356;27.672;2023-08-12T02:48:22;98547.41;;;16.09;74.86
58373;BME280;44177;43.356;27.672;2023-08-12T02:50:48;98560.88;;;16.18;75.11
58373;BME280;44177;43.356;27.672;2023-08-12T02:53:15;98558.09;;;16.15;75.02
58373;BME280;44177;43.356;27.672;2023-08-12T02:55:41;98563.19;;;16.13;74.66
58373;BME280;44177;43.356;27.672;2023-08-12T02:58:06;98563.50;;;16.07;75.18
58373;BME280;44177;43.356;27.672;2023-08-12T03:00:32;98555.19;;;16.04;75.51
58373;BME280;44177;43.356;27.672;2023-08-12T03:02:57;98554.34;;;15.96;76.25
58373;BME280;44177;43.356;27.672;2023-08-12T03:05:23;98570.97;;;16.07;76.01
58373;BME280;44177;43.356;27.672;2023-08-12T03:07:49;98558.25;;;15.95;76.62
58373;BME280;44177;43.356;27.672;2023-08-12T03:10:15;98570.09;;;15.99;77.22
58373;BME280;44177;43.356;27.672;2023-08-12T03:12:40;98558.59;;;15.90;77.48
58373;BME280;44177;43.356;27.672;2023-08-12T03:15:07;98562.13;;;15.90;77.93
58373;BME280;44177;43.356;27.672;2023-08-12T03:17:33;98568.88;;;15.97;78.10
58373;BME280;44177;43.356;27.672;2023-08-12T03:19:58;98561.75;;;15.92;78.46
58373;BME280;44177;43.356;27.672;2023-08-12T03:22:26;98559.41;;;15.94;78.64
58373;BME280;44177;43.356;27.672;2023-08-12T03:24:52;98566.94;;;15.97;78.24
58373;BME280;44177;43.356;27.672;2023-08-12T03:27:18;98566.94;;;15.97;78.13
58373;BME280;44177;43.356;27.672;2023-08-12T03:29:43;98574.13;;;16.05;78.15
58373;BME280;44177;43.356;27.672;2023-08-12T03:32:09;98564.63;;;16.03;77.87
58373;BME280;44177;43.356;27.672;2023-08-12T03:34:34;98573.69;;;16.03;78.00
58373;BME280;44177;43.356;27.672;2023-08-12T03:37:00;98569.31;;;15.99;78.74
58373;BME280;44177;43.356;27.672;2023-08-12T03:39:25;98576.75;;;15.98;79.18
58373;BME280;44177;43.356;27.672;2023-08-12T03:41:51;98570.94;;;16.03;78.81
58373;BME280;44177;43.356;27.672;2023-08-12T03:44:18;98586.41;;;16.15;78.97
58373;BME280;44177;43.356;27.672;2023-08-12T03:46:43;98575.41;;;16.15;78.95
58373;BME280;44177;43.356;27.672;2023-08-12T03:49:09;98577.91;;;16.27;78.83
58373;BME280;44177;43.356;27.672;2023-08-12T03:51:34;98587.81;;;16.36;78.43
58373;BME280;44177;43.356;27.672;2023-08-12T03:54:00;98566.59;;;16.36;78.10
58373;BME280;44177;43.356;27.672;2023-08-12T03:56:25;98593.53;;;16.54;78.25
58373;BME280;44177;43.356;27.672;2023-08-12T03:58:51;98588.94;;;16.65;77.61
58373;BME280;44177;43.356;27.672;2023-08-12T04:01:17;98589.75;;;16.69;77.27
58373;BME280;44177;43.356;27.672;2023-08-12T04:03:43;98584.31;;;16.73;77.76
58373;BME280;44177;43.356;27.672;2023-08-12T04:06:08;98583.94;;;16.78;77.26
58373;BME280;44177;43.356;27.672;2023-08-12T04:08:34;98589.13;;;16.87;76.87
58373;BME280;44177;43.356;27.672;2023-08-12T04:11:00;98593.56;;;16.95;76.43
58373;BME280;44177;43.356;27.672;2023-08-12T04:13:26;98586.16;;;16.99;76.42
58373;BME280;44177;43.356;27.672;2023-08-12T04:15:51;98579.47;;;17.00;76.45
58373;BME280;44177;43.356;27.672;2023-08-12T04:18:20;98583.81;;;17.05;76.32
58373;BME280;44177;43.356;27.672;2023-08-12T04:20:48;98586.25;;;17.14;76.13
58373;BME280;44177;43.356;27.672;2023-08-12T04:23:14;98574.13;;;17.22;75.90
58373;BME280;44177;43.356;27.672;2023-08-12T04:25:39;98588.75;;;17.33;75.44
58373;BME280;44177;43.356;27.672;2023-08-12T04:28:05;98591.13;;;17.31;76.08
58373;BME280;44177;43.356;27.672;2023-08-12T04:30:31;98588.00;;;17.36;76.04
58373;BME280;44177;43.356;27.672;2023-08-12T04:32:56;98584.16;;;17.48;76.35
58373;BME280;44177;43.356;27.672;2023-08-12T04:35:22;98577.91;;;17.55;76.15
58373;BME280;44177;43.356;27.672;2023-08-12T04:37:47;98584.31;;;17.74;75.92
58373;BME280;44177;43.356;27.672;2023-08-12T04:40:13;98587.09;;;17.81;75.98
58373;BME280;44177;43.356;27.672;2023-08-12T04:42:39;98593.06;;;17.87;76.33
58373;BME280;44177;43.356;27.672;2023-08-12T04:45:05;98583.72;;;18.06;75.16
58373;BME280;44177;43.356;27.672;2023-08-12T04:47:30;98586.91;;;18.11;75.14
58373;BME280;44177;43.356;27.672;2023-08-12T04:49:56;98586.97;;;18.26;74.87
58373;BME280;44177;43.356;27.672;2023-08-12T04:52:22;98589.38;;;18.35;74.19
58373;BME280;44177;43.356;27.672;2023-08-12T04:54:48;98596.47;;;18.43;73.83
58373;BME280;44177;43.356;27.672;2023-08-12T04:57:13;98601.66;;;18.52;74.80
58373;BME280;44177;43.356;27.672;2023-08-12T04:59:39;98589.44;;;18.63;74.30
58373;BME280;44177;43.356;27.672;2023-08-12T05:02:04;98591.03;;;18.72;74.36
58373;BME280;44177;43.356;27.672;2023-08-12T05:04:30;98604.47;;;18.91;73.85
58373;BME280;44177;43.356;27.672;2023-08-12T05:06:55;98597.44;;;19.12;73.12
58373;BME280;44177;43.356;27.672;2023-08-12T05:09:21;98599.81;;;19.24;73.46
58373;BME280;44177;43.356;27.672;2023-08-12T05:11:47;98599.00;;;19.42;72.07
58373;BME280;44177;43.356;27.672;2023-08-12T05:14:12;98588.72;;;19.46;71.12
58373;BME280;44177;43.356;27.672;2023-08-12T05:16:38;98590.28;;;19.62;70.56
58373;BME280;44177;43.356;27.672;2023-08-12T05:19:03;98593.44;;;19.71;70.24
58373;BME280;44177;43.356;27.672;2023-08-12T05:21:29;98587.88;;;19.78;70.68
58373;BME280;44177;43.356;27.672;2023-08-12T05:23:55;98592.59;;;19.96;70.06
58373;BME280;44177;43.356;27.672;2023-08-12T05:26:20;98600.47;;;20.12;70.59
58373;BME280;44177;43.356;27.672;2023-08-12T05:28:46;98592.50;;;20.25;68.96
58373;BME280;44177;43.356;27.672;2023-08-12T05:31:11;98605.09;;;20.44;68.60
58373;BME280;44177;43.356;27.672;2023-08-12T05:33:37;98594.72;;;20.59;67.56
58373;BME280;44177;43.356;27.672;2023-08-12T05:36:03;98608.09;;;20.78;65.85
58373;BME280;44177;43.356;27.672;2023-08-12T05:38:29;98599.69;;;20.93;65.39
58373;BME280;44177;43.356;27.672;2023-08-12T05:40:54;98592.91;;;20.97;65.89
58373;BME280;44177;43.356;27.672;2023-08-12T05:43:20;98605.41;;;21.24;65.02
58373;BME280;44177;43.356;27.672;2023-08-12T05:45:46;98598.97;;;21.34;63.02
58373;BME280;44177;43.356;27.672;2023-08-12T05:48:11;98597.25;;;21.48;63.72
58373;BME280;44177;43.356;27.672;2023-08-12T05:50:37;98611.34;;;21.71;62.48
58373;BME280;44177;43.356;27.672;2023-08-12T05:53:03;98603.97;;;21.92;61.79
58373;BME280;44177;43.356;27.672;2023-08-12T05:55:28;98605.81;;;22.06;60.98
58373;BME280;44177;43.356;27.672;2023-08-12T05:57:54;98592.34;;;22.04;60.07
58373;BME280;44177;43.356;27.672;2023-08-12T06:00:20;98591.53;;;22.38;59.98
58373;BME280;44177;43.356;27.672;2023-08-12T06:02:45;98602.50;;;22.53;59.85
58373;BME280;44177;43.356;27.672;2023-08-12T06:05:11;98588.44;;;22.64;58.13
58373;BME280;44177;43.356;27.672;2023-08-12T06:07:36;98603.66;;;22.83;57.38
58373;BME280;44177;43.356;27.672;2023-08-12T06:10:02;98600.94;;;23.07;57.47
58373;BME280;44177;43.356;27.672;2023-08-12T06:12:28;98603.63;;;23.38;57.33
58373;BME280;44177;43.356;27.672;2023-08-12T06:14:54;98607.50;;;23.68;55.99
58373;BME280;44177;43.356;27.672;2023-08-12T06:17:20;98585.38;;;23.80;55.36
58373;BME280;44177;43.356;27.672;2023-08-12T06:19:45;98591.06;;;24.17;53.82
58373;BME280;44177;43.356;27.672;2023-08-12T06:22:11;98594.38;;;24.49;53.08
58373;BME280;44177;43.356;27.672;2023-08-12T06:24:36;98592.22;;;24.77;51.53
58373;BME280;44177;43.356;27.672;2023-08-12T06:27:02;98590.50;;;24.99;51.70
58373;BME280;44177;43.356;27.672;2023-08-12T06:29:28;98586.72;;;25.22;51.73
58373;BME280;44177;43.356;27.672;2023-08-12T06:31:54;98589.28;;;25.33;51.36
58373;BME280;44177;43.356;27.672;2023-08-12T06:34:19;98592.56;;;25.61;49.85
58373;BME280;44177;43.356;27.672;2023-08-12T06:36:45;98591.31;;;25.79;49.54
58373;BME280;44177;43.356;27.672;2023-08-12T06:39:11;98595.19;;;25.52;47.14
58373;BME280;44177;43.356;27.672;2023-08-12T06:41:36;98592.38;;;25.68;47.85
58373;BME280;44177;43.356;27.672;2023-08-12T06:44:03;98599.28;;;26.10;46.71
58373;BME280;44177;43.356;27.672;2023-08-12T06:46:29;98592.75;;;26.42;47.39
58373;BME280;44177;43.356;27.672;2023-08-12T06:48:57;98591.28;;;26.51;46.47
58373;BME280;44177;43.356;27.672;2023-08-12T06:51:24;98596.34;;;26.69;45.79
58373;BME280;44177;43.356;27.672;2023-08-12T06:53:49;98581.00;;;26.73;45.72
58373;BME280;44177;43.356;27.672;2023-08-12T06:56:15;98591.88;;;27.23;45.66
58373;BME280;44177;43.356;27.672;2023-08-12T06:58:41;98599.69;;;27.28;43.87
58373;BME280;44177;43.356;27.672;2023-08-12T07:01:07;98601.88;;;27.59;44.18
58373;BME280;44177;43.356;27.672;2023-08-12T07:03:33;98595.22;;;27.79;43.13
58373;BME280;44177;43.356;27.672;2023-08-12T07:05:58;98597.81;;;28.08;42.61
58373;BME280;44177;43.356;27.672;2023-08-12T07:08:24;98594.03;;;28.56;42.86
58373;BME280;44177;43.356;27.672;2023-08-12T07:10:50;98589.22;;;28.97;40.60
58373;BME280;44177;43.356;27.672;2023-08-12T07:13:15;98585.25;;;29.26;39.23
58373;BME280;44177;43.356;27.672;2023-08-12T07:15:41;98583.91;;;29.40;38.92
58373;BME280;44177;43.356;27.672;2023-08-12T07:18:07;98587.03;;;29.60;39.45
58373;BME280;44177;43.356;27.672;2023-08-12T07:20:32;98583.94;;;29.77;38.14
58373;BME280;44177;43.356;27.672;2023-08-12T07:22:58;98586.09;;;29.82;37.38
58373;BME280;44177;43.356;27.672;2023-08-12T07:25:24;98587.97;;;30.13;37.78
58373;BME280;44177;43.356;27.672;2023-08-12T07:27:49;98583.84;;;30.51;37.15
58373;BME280;44177;43.356;27.672;2023-08-12T07:30:15;98571.81;;;30.84;36.81
58373;BME280;44177;43.356;27.672;2023-08-12T07:32:41;98578.59;;;31.11;35.99
58373;BME280;44177;43.356;27.672;2023-08-12T07:35:07;98572.59;;;31.43;35.68
58373;BME280;44177;43.356;27.672;2023-08-12T07:37:32;98573.25;;;31.62;34.44
58373;BME280;44177;43.356;27.672;2023-08-12T07:39:58;98570.38;;;31.71;34.31
58373;BME280;44177;43.356;27.672;2023-08-12T07:42:24;98575.19;;;31.80;35.14
58373;BME280;44177;43.356;27.672;2023-08-12T07:44:49;98572.34;;;31.95;33.20
58373;BME280;44177;43.356;27.672;2023-08-12T07:47:15;98566.84;;;32.16;32.97
58373;BME280;44177;43.356;27.672;2023-08-12T07:49:42;98563.13;;;32.09;32.56
58373;BME280;44177;43.356;27.672;2023-08-12T07:52:08;98571.09;;;31.96;32.87
58373;BME280;44177;43.356;27.672;2023-08-12T07:54:34;98565.50;;;32.41;33.35
58373;BME280;44177;43.356;27.672;2023-08-12T07:56:59;98563.53;;;32.47;32.15
58373;BME280;44177;43.356;27.672;2023-08-12T07:59:25;98559.06;;;32.55;31.75
58373;BME280;44177;43.356;27.672;2023-08-12T08:01:51;98561.84;;;32.70;30.75
58373;BME280;44177;43.356;27.672;2023-08-12T08:04:17;98559.31;;;32.87;30.55
58373;BME280;44177;43.356;27.672;2023-08-12T08:06:46;98553.25;;;33.15;31.08
58373;BME280;44177;43.356;27.672;2023-08-12T08:09:13;98557.28;;;33.09;30.43
58373;BME280;44177;43.356;27.672;2023-08-12T08:11:40;98562.94;;;33.29;29.25
58373;BME280;44177;43.356;27.672;2023-08-12T08:14:07;98558.84;;;33.72;30.41
58373;BME280;44177;43.356;27.672;2023-08-12T08:16:34;98556.13;;;34.04;29.12
58373;BME280;44177;43.356;27.672;2023-08-12T08:19:01;98566.63;;;34.29;28.39
58373;BME280;44177;43.356;27.672;2023-08-12T08:21:29;98560.63;;;34.48;28.08
58373;BME280;44177;43.356;27.672;2023-08-12T08:23:55;98559.72;;;34.62;28.51
58373;BME280;44177;43.356;27.672;2023-08-12T08:26:21;98556.13;;;34.62;27.24
58373;BME280;44177;43.356;27.672;2023-08-12T08:28:47;98560.81;;;34.71;27.13
58373;BME280;44177;43.356;27.672;2023-08-12T08:31:13;98562.44;;;34.83;27.14
58373;BME280;44177;43.356;27.672;2023-08-12T08:33:38;98558.38;;;34.52;26.85
58373;BME280;44177;43.356;27.672;2023-08-12T08:36:04;98555.78;;;34.54;26.94
58373;BME280;44177;43.356;27.672;2023-08-12T08:38:30;98549.56;;;34.82;26.81
58373;BME280;44177;43.356;27.672;2023-08-12T08:40:57;98546.28;;;34.89;27.08
58373;BME280;44177;43.356;27.672;2023-08-12T08:43:24;98551.44;;;34.91;27.32
58373;BME280;44177;43.356;27.672;2023-08-12T08:45:53;98543.50;;;34.63;25.77
58373;BME280;44177;43.356;27.672;2023-08-12T08:48:20;98544.94;;;34.85;26.69
58373;BME280;44177;43.356;27.672;2023-08-12T08:50:46;98541.16;;;34.99;28.25
58373;BME280;44177;43.356;27.672;2023-08-12T08:53:14;98545.97;;;35.31;26.18
58373;BME280;44177;43.356;27.672;2023-08-12T08:55:41;98538.53;;;35.39;26.12
58373;BME280;44177;43.356;27.672;2023-08-12T08:58:07;98547.16;;;35.67;26.70
58373;BME280;44177;43.356;27.672;2023-08-12T09:00:32;98538.66;;;35.84;25.14
58373;BME280;44177;43.356;27.672;2023-08-12T09:02:59;98530.19;;;36.24;24.59
58373;BME280;44177;43.356;27.672;2023-08-12T09:05:25;98527.53;;;35.69;25.45
58373;BME280;44177;43.356;27.672;2023-08-12T09:07:53;98530.72;;;35.94;25.70
58373;BME280;44177;43.356;27.672;2023-08-12T09:10:21;98524.81;;;36.09;24.44
58373;BME280;44177;43.356;27.672;2023-08-12T09:12:47;98531.19;;;35.87;24.51
58373;BME280;44177;43.356;27.672;2023-08-12T09:15:13;98519.09;;;36.20;24.03
58373;BME280;44177;43.356;27.672;2023-08-12T09:17:39;98521.16;;;36.37;24.54
58373;BME280;44177;43.356;27.672;2023-08-12T09:20:05;98524.28;;;36.62;24.32
58373;BME280;44177;43.356;27.672;2023-08-12T09:22:37;98523.72;;;36.80;24.29
58373;BME280;44177;43.356;27.672;2023-08-12T09:25:04;98518.16;;;37.28;24.08
58373;BME280;44177;43.356;27.672;2023-08-12T09:27:31;98517.31;;;36.63;23.99
58373;BME280;44177;43.356;27.672;2023-08-12T09:29:56;98513.34;;;37.00;24.01
58373;BME280;44177;43.356;27.672;2023-08-12T09:32:25;98515.94;;;36.87;23.56
58373;BME280;44177;43.356;27.672;2023-08-12T09:34:54;98506.81;;;37.22;23.02
58373;BME280;44177;43.356;27.672;2023-08-12T09:37:22;98524.81;;;37.42;23.14
58373;BME280;44177;43.356;27.672;2023-08-12T09:39:49;98513.16;;;37.93;23.38
58373;BME280;44177;43.356;27.672;2023-08-12T09:42:16;98505.41;;;38.24;22.35
58373;BME280;44177;43.356;27.672;2023-08-12T09:44:42;98501.56;;;38.52;22.71
58373;BME280;44177;43.356;27.672;2023-08-12T09:47:09;98502.09;;;38.20;20.84
58373;BME280;44177;43.356;27.672;2023-08-12T09:49:36;98510.31;;;37.93;22.03
58373;BME280;44177;43.356;27.672;2023-08-12T09:52:03;98499.31;;;37.72;21.54
58373;BME280;44177;43.356;27.672;2023-08-12T09:54:31;98491.81;;;37.69;22.81
58373;BME280;44177;43.356;27.672;2023-08-12T09:57:08;98496.03;;;37.99;22.53
58373;BME280;44177;43.356;27.672;2023-08-12T09:59:34;98492.88;;;37.72;22.63
58373;BME280;44177;43.356;27.672;2023-08-12T10:02:04;98494.03;;;37.94;21.03
58373;BME280;44177;43.356;27.672;2023-08-12T10:04:39;98482.63;;;38.24;21.13
58373;BME280;44177;43.356;27.672;2023-08-12T10:07:07;98492.19;;;37.96;22.08
58373;BME280;44177;43.356;27.672;2023-08-12T10:09:34;98484.28;;;38.14;21.08
58373;BME280;44177;43.356;27.672;2023-08-12T10:12:01;98474.81;;;38.30;21.76
58373;BME280;44177;43.356;27.672;2023-08-12T10:14:27;98479.38;;;38.69;21.27
58373;BME280;44177;43.356;27.672;2023-08-12T10:16:54;98478.41;;;38.36;20.95
58373;BME280;44177;43.356;27.672;2023-08-12T10:19:20;98482.69;;;38.49;22.12
58373;BME280;44177;43.356;27.672;2023-08-12T10:21:48;98476.69;;;37.50;21.76
58373;BME280;44177;43.356;27.672;2023-08-12T10:24:16;98472.94;;;37.72;21.76
58373;BME280;44177;43.356;27.672;2023-08-12T10:26:42;98479.41;;;37.72;22.39
58373;BME280;44177;43.356;27.672;2023-08-12T10:29:08;98476.00;;;36.28;22.64
58373;BME280;44177;43.356;27.672;2023-08-12T10:31:34;98477.75;;;36.76;22.70
58373;BME280;44177;43.356;27.672;2023-08-12T10:34:00;98457.38;;;37.31;21.85
58373;BME280;44177;43.356;27.672;2023-08-12T10:36:27;98468.81;;;37.20;21.96
58373;BME280;44177;43.356;27.672;2023-08-12T10:38:53;98471.31;;;37.35;21.09
58373;BME280;44177;43.356;27.672;2023-08-12T10:41:19;98464.97;;;38.01;21.79
58373;BME280;44177;43.356;27.672;2023-08-12T10:46:29;98456.56;;;38.94;20.79
58373;BME280;44177;43.356;27.672;2023-08-12T10:49:09;98458.03;;;39.20;20.47
58373;BME280;44177;43.356;27.672;2023-08-12T10:57:05;98445.72;;;37.35;21.50
58373;BME280;44177;43.356;27.672;2023-08-12T11:02:33;98451.34;;;36.87;21.55
58373;BME280;44177;43.356;27.672;2023-08-12T11:05:04;98448.28;;;36.85;21.61
58373;BME280;44177;43.356;27.672;2023-08-12T11:07:43;98446.75;;;36.78;21.32
58373;BME280;44177;43.356;27.672;2023-08-12T11:10:21;98443.53;;;37.10;22.67
58373;BME280;44177;43.356;27.672;2023-08-12T11:15:17;98440.53;;;37.81;22.01
58373;BME280;44177;43.356;27.672;2023-08-12T11:17:43;98432.91;;;38.25;20.81
58373;BME280;44177;43.356;27.672;2023-08-12T11:20:12;98419.66;;;37.25;21.86
58373;BME280;44177;43.356;27.672;2023-08-12T11:22:41;98432.38;;;36.19;22.71
58373;BME280;44177;43.356;27.672;2023-08-12T11:25:09;98441.69;;;35.75;23.36
58373;BME280;44177;43.356;27.672;2023-08-12T11:27:43;98437.47;;;36.72;22.35
58373;BME280;44177;43.356;27.672;2023-08-12T11:30:14;98436.53;;;37.17;22.44
58373;BME280;44177;43.356;27.672;2023-08-12T11:32:54;98425.66;;;37.63;21.82
58373;BME280;44177;43.356;27.672;2023-08-12T11:35:22;98431.84;;;37.67;20.89
58373;BME280;44177;43.356;27.672;2023-08-12T11:37:51;98435.25;;;37.96;21.38
58373;BME280;44177;43.356;27.672;2023-08-12T11:40:19;98427.13;;;38.06;20.46
58373;BME280;44177;43.356;27.672;2023-08-12T11:42:46;98416.31;;;38.29;20.85
58373;BME280;44177;43.356;27.672;2023-08-12T11:45:13;98417.34;;;38.32;21.79
58373;BME280;44177;43.356;27.672;2023-08-12T11:47:40;98429.53;;;38.76;21.02
58373;BME280;44177;43.356;27.672;2023-08-12T11:50:11;98428.53;;;38.74;20.41
58373;BME280;44177;43.356;27.672;2023-08-12T11:52:38;98427.34;;;39.07;20.41
58373;BME280;44177;43.356;27.672;2023-08-12T11:55:05;98419.34;;;39.06;19.37
58373;BME280;44177;43.356;27.672;2023-08-12T11:57:32;98415.09;;;38.49;19.79
58373;BME280;44177;43.356;27.672;2023-08-12T12:00:06;98416.47;;;38.86;19.20
58373;BME280;44177;43.356;27.672;2023-08-12T12:02:47;98407.22;;;38.80;19.42
58373;BME280;44177;43.356;27.672;2023-08-12T12:05:14;98400.59;;;39.10;19.32
58373;BME280;44177;43.356;27.672;2023-08-12T12:07:40;98402.47;;;39.08;18.86
58373;BME280;44177;43.356;27.672;2023-08-12T12:10:07;98399.22;;;38.54;19.81
58373;BME280;44177;43.356;27.672;2023-08-12T12:12:34;98402.00;;;39.04;19.90
58373;BME280;44177;43.356;27.672;2023-08-12T12:15:01;98403.00;;;38.13;21.15
58373;BME280;44177;43.356;27.672;2023-08-12T12:17:27;98400.63;;;37.92;20.76
58373;BME280;44177;43.356;27.672;2023-08-12T12:19:57;98409.13;;;36.38;22.13
58373;BME280;44177;43.356;27.672;2023-08-12T12:22:33;98406.84;;;35.85;22.74
58373;BME280;44177;43.356;27.672;2023-08-12T12:24:59;98401.81;;;35.12;22.92
58373;BME280;44177;43.356;27.672;2023-08-12T12:27:26;98392.34;;;35.32;23.15
58373;BME280;44177;43.356;27.672;2023-08-12T12:29:53;98392.41;;;36.00;22.69
58373;BME280;44177;43.356;27.672;2023-08-12T12:32:19;98397.16;;;36.68;22.12
58373;BME280;44177;43.356;27.672;2023-08-12T12:34:46;98391.63;;;37.04;21.06
58373;BME280;44177;43.356;27.672;2023-08-12T12:37:12;98388.44;;;37.13;22.19
58373;BME280;44177;43.356;27.672;2023-08-12T12:39:39;98385.00;;;37.68;20.60
58373;BME280;44177;43.356;27.672;2023-08-12T12:42:05;98382.00;;;37.55;21.86
58373;BME280;44177;43.356;27.672;2023-08-12T12:44:31;98386.38;;;37.92;21.26
58373;BME280;44177;43.356;27.672;2023-08-12T12:46:56;98381.91;;;37.66;20.66
58373;BME280;44177;43.356;27.672;2023-08-12T12:49:22;98382.44;;;37.23;22.14
58373;BME280;44177;43.356;27.672;2023-08-12T12:51:48;98381.69;;;36.63;22.12
58373;BME280;44177;43.356;27.672;2023-08-12T12:54:14;98380.81;;;35.70;22.19
58373;BME280;44177;43.356;27.672;2023-08-12T12:56:39;98386.31;;;34.90;22.83
58373;BME280;44177;43.356;27.672;2023-08-12T12:59:05;98397.56;;;33.92;24.34
58373;BME280;44177;43.356;27.672;2023-08-12T13:01:30;98393.50;;;33.41;24.75
58373;BME280;44177;43.356;27.672;2023-08-12T13:03:56;98389.25;;;33.04;26.41
58373;BME280;44177;43.356;27.672;2023-08-12T13:06:21;98396.00;;;32.71;27.72